Wednesday, September 24, 2014
02:33 UTC
  |  Log In   |  Register Free
Airport Search:

Petaluma Municipal Airport
(O69)

Petaluma Municipal Airport Diagram
No Airport Diagram Available

FAA data valid effective September 18, 2014 - November 13, 2014 (unless otherwise noted).

 
 
 
 
 
 
 
 
 
 
 
 
 
 

Current Aviation Weather for Petaluma Municipal Airport (O69)

METAR data is unavailable for O69. The nearest METAR location is at KDVO (7.2 nm SE from O69).

The most recent METAR observation for KDVO was updated at: 0208
METAR Summary (Translated METAR)
KDVO
240155Z AUTO 36008KT 10SM CLR 20/17 A2992 RMK AO2
(7.2 nm SE from O69)
KAPC
240154Z AUTO 27016G22KT 10SM CLR 20/17 A2990 RMK AO2 SLP115 T02000167
(15.6 nm SE from O69)
TAF Summary (Translated TAF)
KSTS
(25 nm NW from KDVO)
231736Z 2318/2418 VRB03KT P6SM SCT200 FM232100 20009KT P6SM SCT200 FM240400 16005KT P6SM SCT150 FM240900 16003KT P6SM OVC015
  Airport Weather Conditions for O69

Current weather conditions are
not available for O69


The nearest NOAA weather station
is at DVO, (7.2 nm SE from O69)
  
 Current Weather at DVO
68° F
Fair
North winds at 9.2 mph
DVO NOAA Radar

Pressure: 29.92 in
Humidity: 83%
Wind: North at 9.2 MPH (8 KT)
Dew Point: 62.6°F
Visibility: 10.00 mi


Airport Weather Forecast for O69

Translated METAR and TAF for KDVO
Translated METAR for KDVO (0227 UTC 24 September 2014)
found at http://aviationweather.gov/adds/metars/
 
METAR text: KDVO 240215Z AUTO 36009KT 050V020 10SM CLR 19/17 A2992 RMK AO2
Conditions at: KDVO (NOVATO/GNOSS FLD, CA, US) observed 0215 UTC 24 September 2014
Temperature: 19.0°C (66°F)
Dewpoint: 17.0°C (63°F) [RH = 88%]
Pressure (altimeter): 29.92 inches Hg (1013.3 mb)
Winds: from the N (360 degrees) at 10 MPH (9 knots; 4.7 m/s)
Visibility: 10 or more miles (16+ km)
Ceiling: at least 12,000 feet AGL
Clouds: sky clear below 12,000 feet AGL
Weather: automated observation with no human augmentation;
there may or may not be significant weather present at this time
Translated TAF for KDVO

There is no translated TAF available for this airport

Find All Airport Services Find A Hotel Find A Rental Car Find A Golf Course Find A Restaurant $100 Hamburger



FBO's on the Field
FBO Company Facility Photos Services Transportation Aviation Fuel Prices: Prices include tax
Catering Weather Repair Courtesy Rental Type 100LL JetA JetA+ MOGAS 8087
 
Petaluma Municipal Airport

Currently rated 4.8 by 1 person
FS:Ascent
Last Updated: Sep-11
Login to update fuel prices
SS:
Contact Petaluma Municipal AirportMore FBO Information
 
Add another FBO Facility Photos Catering Weather Repair Courtesy Rental Type 100LL JetA JetA+ MOGAS 8087
Services Transportation Aviation Fuel Prices: Prices include tax


model-print
model-print
model-print
model-print